Osoyoos, Canada
Current Conditions -  °F | °C
As of 5:00 AM on Thursday 27 Nov 2014 (Local Time) from CYYF Reporting Station
Overcast Overcast  
Wind Chill: 32°   Ceiling: 1200
Heat Index: 41°   Visibility: 12mi
Dew Point: 37°   Wind: 18mph
Humidity: 87%   Direction: 160°SSE
Pressure: 29.79"   Gusts: NA
Location:  49.03°N, 119.47°W
Report Text: CYYF 271300Z 16016KT 12SM FEW007 BKN012 OVC025 05/03 A2979 RMK SF1ST5SC2 SLP098
Loading
Personal Weather Stations






























Interactive Weather Map New forecast layout! Learn more

10-Day Weather Forecast

Advertisements
Track Severe Weather on mobile